createdAt,value
2022-12-19T00:03:34.498Z,958.41
2022-12-19T00:18:36.503Z,958.55
2022-12-19T00:33:40.678Z,958.62
2022-12-19T00:48:45.488Z,958.77
2022-12-19T01:04:11.262Z,958.85
2022-12-19T01:19:20.955Z,959.11
2022-12-19T01:34:22.879Z,958.97
2022-12-19T01:49:25.128Z,958.96
2022-12-19T02:04:28.954Z,959.27
2022-12-19T02:19:34.498Z,959.58
2022-12-19T02:34:40.021Z,959.48
2022-12-19T02:49:46.062Z,959.47
2022-12-19T03:04:47.954Z,960.01
2022-12-19T03:19:49.888Z,959.99
2022-12-19T03:34:51.801Z,960.33
2022-12-19T03:49:53.954Z,960.76
2022-12-19T04:04:55.851Z,961.03
2022-12-19T04:19:57.748Z,961.22
2022-12-19T04:34:59.687Z,961.6
2022-12-19T04:50:01.588Z,961.98
2022-12-19T05:05:03.509Z,962.46
2022-12-19T05:20:05.423Z,962.94
2022-12-19T05:35:07.331Z,963.15
2022-12-19T05:50:10.308Z,963.41
2022-12-19T06:05:12.266Z,963.91
2022-12-19T06:20:14.165Z,964.45
2022-12-19T06:35:16.108Z,964.8
2022-12-19T06:50:18.112Z,965.14
2022-12-19T07:05:20.036Z,965.73
2022-12-19T07:20:21.951Z,965.79
2022-12-19T07:35:23.852Z,965.98
2022-12-19T07:50:25.747Z,966.11
2022-12-19T08:05:27.650Z,966.48
2022-12-19T08:20:29.582Z,967
2022-12-19T08:35:31.461Z,967.36
2022-12-19T08:50:33.366Z,967.79
2022-12-19T09:06:05.048Z,967.99
2022-12-19T09:21:08.787Z,968.52
2022-12-19T09:36:10.701Z,969.03
2022-12-19T09:51:12.631Z,969.45
2022-12-19T10:07:10.475Z,969.91
2022-12-19T10:22:35.013Z,970.42
2022-12-19T10:37:43.837Z,970.59
2022-12-19T10:52:49.317Z,970.92
2022-12-19T11:07:51.322Z,970.88
2022-12-19T11:30:09.082Z,971
2022-12-19T11:46:03.400Z,971.34
2022-12-19T12:01:05.247Z,971.52
2022-12-19T12:31:01.329Z,971.65
2022-12-19T12:46:38.780Z,972.27
2022-12-19T13:01:40.783Z,972.47
2022-12-19T13:16:42.753Z,972.66
2022-12-19T13:31:44.718Z,972.75
2022-12-19T13:46:46.623Z,972.96
2022-12-19T14:01:48.564Z,973.09
2022-12-19T14:16:50.541Z,973.21
2022-12-19T14:32:15.182Z,973.44
2022-12-19T14:52:25.897Z,973.63
2022-12-19T15:11:04.536Z,973.76
2022-12-19T15:26:14.200Z,973.92
2022-12-19T15:41:16.049Z,974.08
2022-12-19T15:56:17.971Z,974.3
2022-12-19T16:11:19.814Z,974.82
2022-12-19T16:26:21.667Z,974.96
2022-12-19T16:41:23.543Z,975.23
2022-12-19T16:56:25.447Z,975.43
2022-12-19T17:11:27.317Z,975.54
2022-12-19T17:26:29.130Z,975.58
2022-12-19T17:41:30.971Z,975.63
2022-12-19T17:56:32.844Z,975.77
2022-12-19T18:11:40.043Z,975.97
2022-12-19T18:26:43.831Z,975.88
2022-12-19T18:41:45.669Z,975.85
2022-12-19T18:56:47.512Z,975.86
2022-12-19T19:11:49.413Z,975.68
2022-12-19T19:26:51.261Z,975.76
2022-12-19T19:41:53.078Z,975.77
2022-12-19T19:56:54.929Z,975.7
2022-12-19T20:11:56.827Z,975.9
2022-12-19T20:26:58.694Z,975.94
2022-12-19T20:42:00.598Z,975.96
2022-12-19T20:57:02.484Z,976.01
2022-12-19T21:12:04.359Z,976.08
2022-12-19T21:27:06.181Z,975.98
2022-12-19T21:42:08.152Z,975.95
2022-12-19T21:57:10.015Z,976.13
2022-12-19T22:12:11.850Z,976.18
2022-12-19T22:27:13.713Z,976.31
2022-12-19T22:42:15.591Z,976.53
2022-12-19T22:57:17.434Z,976.72
2022-12-19T23:12:19.252Z,976.68
2022-12-19T23:27:21.113Z,976.65
2022-12-19T23:42:22.953Z,976.67
2022-12-19T23:57:24.855Z,976.75
